sensor_id;sensor_type;location;lat;lon;timestamp;P1;durP1;ratioP1;P2;durP2;ratioP2
18726;SDS011;9492;51.888;5.186;2023-09-19T00:02:04;5.57;;;1.87;;
18726;SDS011;9492;51.888;5.186;2023-09-19T00:04:33;3.93;;;2.13;;
18726;SDS011;9492;51.888;5.186;2023-09-19T00:06:59;5.57;;;1.77;;
18726;SDS011;9492;51.888;5.186;2023-09-19T00:09:27;5.07;;;2.00;;
18726;SDS011;9492;51.888;5.186;2023-09-19T00:11:53;6.37;;;1.67;;
18726;SDS011;9492;51.888;5.186;2023-09-19T00:14:19;5.13;;;2.10;;
18726;SDS011;9492;51.888;5.186;2023-09-19T00:16:49;5.57;;;2.27;;
18726;SDS011;9492;51.888;5.186;2023-09-19T00:19:15;6.10;;;2.30;;
18726;SDS011;9492;51.888;5.186;2023-09-19T00:21:41;5.53;;;1.70;;
18726;SDS011;9492;51.888;5.186;2023-09-19T00:24:08;4.50;;;2.07;;
18726;SDS011;9492;51.888;5.186;2023-09-19T00:26:34;4.83;;;2.20;;
18726;SDS011;9492;51.888;5.186;2023-09-19T00:29:01;9.67;;;2.17;;
18726;SDS011;9492;51.888;5.186;2023-09-19T00:31:33;3.77;;;2.13;;
18726;SDS011;9492;51.888;5.186;2023-09-19T00:33:59;3.60;;;1.60;;
18726;SDS011;9492;51.888;5.186;2023-09-19T00:36:31;4.70;;;1.83;;
18726;SDS011;9492;51.888;5.186;2023-09-19T00:38:58;5.87;;;1.93;;
18726;SDS011;9492;51.888;5.186;2023-09-19T00:41:24;6.60;;;2.47;;
18726;SDS011;9492;51.888;5.186;2023-09-19T00:43:51;4.23;;;2.43;;
18726;SDS011;9492;51.888;5.186;2023-09-19T00:46:17;7.17;;;1.90;;
18726;SDS011;9492;51.888;5.186;2023-09-19T00:48:43;6.03;;;2.37;;
18726;SDS011;9492;51.888;5.186;2023-09-19T00:51:09;7.70;;;2.40;;
18726;SDS011;9492;51.888;5.186;2023-09-19T00:53:36;6.27;;;2.23;;
18726;SDS011;9492;51.888;5.186;2023-09-19T00:56:05;7.87;;;2.43;;
18726;SDS011;9492;51.888;5.186;2023-09-19T00:58:32;7.10;;;2.47;;
18726;SDS011;9492;51.888;5.186;2023-09-19T01:00:58;8.83;;;2.97;;
18726;SDS011;9492;51.888;5.186;2023-09-19T01:03:24;7.20;;;2.70;;
18726;SDS011;9492;51.888;5.186;2023-09-19T01:05:51;8.80;;;2.40;;
18726;SDS011;9492;51.888;5.186;2023-09-19T01:08:17;9.87;;;2.43;;
18726;SDS011;9492;51.888;5.186;2023-09-19T01:10:50;5.23;;;2.70;;
18726;SDS011;9492;51.888;5.186;2023-09-19T01:20:57;7.97;;;2.20;;
18726;SDS011;9492;51.888;5.186;2023-09-19T01:26:10;11.57;;;2.10;;
18726;SDS011;9492;51.888;5.186;2023-09-19T01:31:27;9.07;;;2.57;;
18726;SDS011;9492;51.888;5.186;2023-09-19T01:34:01;6.73;;;2.17;;
18726;SDS011;9492;51.888;5.186;2023-09-19T01:36:33;7.47;;;2.17;;
18726;SDS011;9492;51.888;5.186;2023-09-19T01:39:01;9.47;;;2.40;;
18726;SDS011;9492;51.888;5.186;2023-09-19T01:45:02;8.53;;;2.20;;
18726;SDS011;9492;51.888;5.186;2023-09-19T01:47:04;7.37;;;2.30;;
18726;SDS011;9492;51.888;5.186;2023-09-19T01:52:09;8.03;;;2.57;;
18726;SDS011;9492;51.888;5.186;2023-09-19T01:54:40;7.77;;;2.10;;
18726;SDS011;9492;51.888;5.186;2023-09-19T01:57:09;8.13;;;2.43;;
18726;SDS011;9492;51.888;5.186;2023-09-19T01:59:45;4.37;;;2.10;;
18726;SDS011;9492;51.888;5.186;2023-09-19T02:02:13;8.93;;;2.33;;
18726;SDS011;9492;51.888;5.186;2023-09-19T02:04:40;11.30;;;2.80;;
18726;SDS011;9492;51.888;5.186;2023-09-19T02:07:06;9.63;;;2.73;;
18726;SDS011;9492;51.888;5.186;2023-09-19T02:09:33;6.67;;;2.60;;
18726;SDS011;9492;51.888;5.186;2023-09-19T02:12:00;8.83;;;2.60;;
18726;SDS011;9492;51.888;5.186;2023-09-19T02:14:29;5.63;;;2.30;;
18726;SDS011;9492;51.888;5.186;2023-09-19T02:16:55;6.93;;;2.43;;
18726;SDS011;9492;51.888;5.186;2023-09-19T02:19:21;6.30;;;2.30;;
18726;SDS011;9492;51.888;5.186;2023-09-19T02:21:47;8.73;;;2.70;;
18726;SDS011;9492;51.888;5.186;2023-09-19T02:24:14;5.57;;;2.63;;
18726;SDS011;9492;51.888;5.186;2023-09-19T02:26:40;9.87;;;2.33;;
18726;SDS011;9492;51.888;5.186;2023-09-19T02:29:06;14.30;;;2.43;;
18726;SDS011;9492;51.888;5.186;2023-09-19T02:31:32;8.03;;;2.40;;
18726;SDS011;9492;51.888;5.186;2023-09-19T02:33:58;3.53;;;2.10;;
18726;SDS011;9492;51.888;5.186;2023-09-19T02:36:25;8.60;;;2.30;;
18726;SDS011;9492;51.888;5.186;2023-09-19T02:38:51;6.77;;;2.77;;
18726;SDS011;9492;51.888;5.186;2023-09-19T02:41:17;6.10;;;2.63;;
18726;SDS011;9492;51.888;5.186;2023-09-19T02:43:43;10.43;;;2.77;;
18726;SDS011;9492;51.888;5.186;2023-09-19T02:46:09;6.70;;;2.10;;
18726;SDS011;9492;51.888;5.186;2023-09-19T02:48:36;6.63;;;2.40;;
18726;SDS011;9492;51.888;5.186;2023-09-19T02:51:03;5.73;;;2.33;;
18726;SDS011;9492;51.888;5.186;2023-09-19T02:53:30;7.77;;;1.90;;
18726;SDS011;9492;51.888;5.186;2023-09-19T02:55:57;6.50;;;2.27;;
18726;SDS011;9492;51.888;5.186;2023-09-19T02:58:24;10.10;;;2.30;;
18726;SDS011;9492;51.888;5.186;2023-09-19T03:00:50;11.60;;;2.60;;
18726;SDS011;9492;51.888;5.186;2023-09-19T03:03:16;5.47;;;2.03;;
18726;SDS011;9492;51.888;5.186;2023-09-19T03:05:42;9.10;;;2.40;;
18726;SDS011;9492;51.888;5.186;2023-09-19T03:08:12;9.43;;;2.07;;
18726;SDS011;9492;51.888;5.186;2023-09-19T03:10:40;10.70;;;2.50;;
18726;SDS011;9492;51.888;5.186;2023-09-19T03:13:06;7.57;;;1.83;;
18726;SDS011;9492;51.888;5.186;2023-09-19T03:15:34;8.07;;;2.20;;
18726;SDS011;9492;51.888;5.186;2023-09-19T03:18:03;6.80;;;2.73;;
18726;SDS011;9492;51.888;5.186;2023-09-19T03:20:30;4.23;;;1.73;;
18726;SDS011;9492;51.888;5.186;2023-09-19T03:22:56;4.17;;;1.97;;
18726;SDS011;9492;51.888;5.186;2023-09-19T03:25:22;7.07;;;2.63;;
18726;SDS011;9492;51.888;5.186;2023-09-19T03:27:49;7.13;;;2.23;;
18726;SDS011;9492;51.888;5.186;2023-09-19T03:30:15;6.43;;;2.40;;
18726;SDS011;9492;51.888;5.186;2023-09-19T03:32:45;6.83;;;2.47;;
18726;SDS011;9492;51.888;5.186;2023-09-19T03:35:11;9.83;;;2.33;;
18726;SDS011;9492;51.888;5.186;2023-09-19T03:37:39;9.47;;;2.50;;
18726;SDS011;9492;51.888;5.186;2023-09-19T03:40:06;5.23;;;1.70;;
18726;SDS011;9492;51.888;5.186;2023-09-19T03:42:32;4.90;;;2.30;;
18726;SDS011;9492;51.888;5.186;2023-09-19T03:45:01;9.83;;;2.17;;
18726;SDS011;9492;51.888;5.186;2023-09-19T03:47:29;11.40;;;2.67;;
18726;SDS011;9492;51.888;5.186;2023-09-19T03:49:55;6.87;;;2.20;;
18726;SDS011;9492;51.888;5.186;2023-09-19T03:52:21;5.80;;;3.03;;
18726;SDS011;9492;51.888;5.186;2023-09-19T03:54:47;6.37;;;2.70;;
18726;SDS011;9492;51.888;5.186;2023-09-19T03:57:14;9.70;;;2.50;;
18726;SDS011;9492;51.888;5.186;2023-09-19T03:59:42;6.43;;;2.40;;
18726;SDS011;9492;51.888;5.186;2023-09-19T04:02:08;6.80;;;2.17;;
18726;SDS011;9492;51.888;5.186;2023-09-19T04:04:46;5.87;;;2.30;;
18726;SDS011;9492;51.888;5.186;2023-09-19T04:07:12;9.17;;;2.50;;
18726;SDS011;9492;51.888;5.186;2023-09-19T04:09:38;4.87;;;1.87;;
18726;SDS011;9492;51.888;5.186;2023-09-19T04:12:04;6.07;;;2.83;;
18726;SDS011;9492;51.888;5.186;2023-09-19T04:14:30;5.83;;;1.97;;
18726;SDS011;9492;51.888;5.186;2023-09-19T04:16:56;7.67;;;2.10;;
18726;SDS011;9492;51.888;5.186;2023-09-19T04:19:22;6.60;;;2.30;;
18726;SDS011;9492;51.888;5.186;2023-09-19T04:21:48;5.83;;;2.43;;
18726;SDS011;9492;51.888;5.186;2023-09-19T04:24:15;7.37;;;2.30;;
18726;SDS011;9492;51.888;5.186;2023-09-19T04:26:41;9.07;;;2.57;;
18726;SDS011;9492;51.888;5.186;2023-09-19T04:29:07;8.30;;;2.53;;
18726;SDS011;9492;51.888;5.186;2023-09-19T04:31:36;10.37;;;2.40;;
18726;SDS011;9492;51.888;5.186;2023-09-19T04:34:03;8.87;;;2.60;;
18726;SDS011;9492;51.888;5.186;2023-09-19T04:36:29;8.73;;;2.30;;
18726;SDS011;9492;51.888;5.186;2023-09-19T04:38:56;10.27;;;2.70;;
18726;SDS011;9492;51.888;5.186;2023-09-19T04:41:22;6.53;;;2.23;;
18726;SDS011;9492;51.888;5.186;2023-09-19T04:43:49;8.07;;;2.77;;
18726;SDS011;9492;51.888;5.186;2023-09-19T04:46:16;5.40;;;2.87;;
18726;SDS011;9492;51.888;5.186;2023-09-19T04:48:43;6.17;;;2.00;;
18726;SDS011;9492;51.888;5.186;2023-09-19T04:51:09;5.10;;;2.50;;
18726;SDS011;9492;51.888;5.186;2023-09-19T04:53:36;8.97;;;2.97;;
18726;SDS011;9492;51.888;5.186;2023-09-19T04:56:02;9.07;;;2.40;;
18726;SDS011;9492;51.888;5.186;2023-09-19T04:58:28;7.50;;;2.40;;
18726;SDS011;9492;51.888;5.186;2023-09-19T05:00:55;9.20;;;2.30;;
18726;SDS011;9492;51.888;5.186;2023-09-19T05:03:21;13.00;;;2.70;;
18726;SDS011;9492;51.888;5.186;2023-09-19T05:05:47;9.97;;;2.90;;
18726;SDS011;9492;51.888;5.186;2023-09-19T05:08:14;11.50;;;2.33;;
18726;SDS011;9492;51.888;5.186;2023-09-19T05:10:40;5.63;;;2.00;;
18726;SDS011;9492;51.888;5.186;2023-09-19T05:13:07;6.13;;;1.93;;
18726;SDS011;9492;51.888;5.186;2023-09-19T05:15:33;8.03;;;2.40;;
18726;SDS011;9492;51.888;5.186;2023-09-19T05:18:00;12.03;;;2.83;;
18726;SDS011;9492;51.888;5.186;2023-09-19T05:20:26;5.47;;;2.07;;
18726;SDS011;9492;51.888;5.186;2023-09-19T05:22:58;6.70;;;2.30;;
18726;SDS011;9492;51.888;5.186;2023-09-19T05:25:27;5.23;;;2.13;;
18726;SDS011;9492;51.888;5.186;2023-09-19T05:27:54;5.47;;;2.27;;
18726;SDS011;9492;51.888;5.186;2023-09-19T05:30:21;4.90;;;2.00;;
18726;SDS011;9492;51.888;5.186;2023-09-19T05:32:47;8.50;;;1.73;;
18726;SDS011;9492;51.888;5.186;2023-09-19T05:35:13;11.17;;;2.50;;
18726;SDS011;9492;51.888;5.186;2023-09-19T05:37:39;6.37;;;2.23;;
18726;SDS011;9492;51.888;5.186;2023-09-19T05:40:05;10.27;;;2.97;;
18726;SDS011;9492;51.888;5.186;2023-09-19T05:42:37;6.27;;;2.37;;
18726;SDS011;9492;51.888;5.186;2023-09-19T05:45:06;7.10;;;2.17;;
18726;SDS011;9492;51.888;5.186;2023-09-19T05:47:32;6.13;;;1.87;;
18726;SDS011;9492;51.888;5.186;2023-09-19T05:49:59;11.23;;;2.60;;
18726;SDS011;9492;51.888;5.186;2023-09-19T05:52:25;9.40;;;2.23;;
18726;SDS011;9492;51.888;5.186;2023-09-19T05:54:51;6.73;;;2.20;;
18726;SDS011;9492;51.888;5.186;2023-09-19T05:57:17;12.83;;;2.73;;
18726;SDS011;9492;51.888;5.186;2023-09-19T05:59:44;6.83;;;2.30;;
18726;SDS011;9492;51.888;5.186;2023-09-19T06:02:10;5.93;;;2.10;;
18726;SDS011;9492;51.888;5.186;2023-09-19T06:04:37;6.43;;;2.00;;
18726;SDS011;9492;51.888;5.186;2023-09-19T06:07:06;10.43;;;2.20;;
18726;SDS011;9492;51.888;5.186;2023-09-19T06:09:32;9.33;;;3.27;;
18726;SDS011;9492;51.888;5.186;2023-09-19T06:11:58;8.60;;;2.50;;
18726;SDS011;9492;51.888;5.186;2023-09-19T06:14:28;9.10;;;2.27;;
18726;SDS011;9492;51.888;5.186;2023-09-19T06:16:55;12.80;;;3.53;;
18726;SDS011;9492;51.888;5.186;2023-09-19T06:19:21;8.23;;;2.53;;
18726;SDS011;9492;51.888;5.186;2023-09-19T06:21:48;6.93;;;2.60;;
18726;SDS011;9492;51.888;5.186;2023-09-19T06:24:14;9.13;;;2.43;;
18726;SDS011;9492;51.888;5.186;2023-09-19T06:26:40;8.50;;;2.43;;
18726;SDS011;9492;51.888;5.186;2023-09-19T06:29:09;7.47;;;2.40;;
18726;SDS011;9492;51.888;5.186;2023-09-19T06:31:35;9.97;;;2.63;;
18726;SDS011;9492;51.888;5.186;2023-09-19T06:34:01;4.53;;;2.60;;
18726;SDS011;9492;51.888;5.186;2023-09-19T06:36:28;9.77;;;2.23;;
18726;SDS011;9492;51.888;5.186;2023-09-19T06:38:54;12.17;;;3.23;;
18726;SDS011;9492;51.888;5.186;2023-09-19T06:41:20;10.20;;;2.80;;
18726;SDS011;9492;51.888;5.186;2023-09-19T06:43:49;7.17;;;2.17;;
18726;SDS011;9492;51.888;5.186;2023-09-19T06:46:18;8.27;;;2.47;;
18726;SDS011;9492;51.888;5.186;2023-09-19T06:48:44;10.00;;;2.60;;
18726;SDS011;9492;51.888;5.186;2023-09-19T06:51:12;7.30;;;2.30;;
18726;SDS011;9492;51.888;5.186;2023-09-19T06:53:40;6.70;;;2.50;;
18726;SDS011;9492;51.888;5.186;2023-09-19T06:56:06;9.43;;;2.37;;
18726;SDS011;9492;51.888;5.186;2023-09-19T06:58:32;9.50;;;2.13;;
18726;SDS011;9492;51.888;5.186;2023-09-19T07:00:59;9.77;;;2.70;;
18726;SDS011;9492;51.888;5.186;2023-09-19T07:03:26;9.83;;;2.70;;
18726;SDS011;9492;51.888;5.186;2023-09-19T07:05:53;8.57;;;3.03;;
18726;SDS011;9492;51.888;5.186;2023-09-19T07:08:21;7.97;;;2.90;;
18726;SDS011;9492;51.888;5.186;2023-09-19T07:10:47;6.17;;;2.10;;
18726;SDS011;9492;51.888;5.186;2023-09-19T07:13:13;13.03;;;3.53;;
18726;SDS011;9492;51.888;5.186;2023-09-19T07:15:41;8.83;;;2.60;;
18726;SDS011;9492;51.888;5.186;2023-09-19T07:18:11;11.13;;;3.27;;
18726;SDS011;9492;51.888;5.186;2023-09-19T07:20:37;13.53;;;3.33;;
18726;SDS011;9492;51.888;5.186;2023-09-19T07:23:03;7.37;;;3.03;;
18726;SDS011;9492;51.888;5.186;2023-09-19T07:25:31;8.47;;;2.73;;
18726;SDS011;9492;51.888;5.186;2023-09-19T07:27:57;11.60;;;3.47;;
18726;SDS011;9492;51.888;5.186;2023-09-19T07:30:25;7.60;;;2.70;;
18726;SDS011;9492;51.888;5.186;2023-09-19T07:32:51;10.23;;;2.87;;
18726;SDS011;9492;51.888;5.186;2023-09-19T07:35:17;6.30;;;2.10;;
18726;SDS011;9492;51.888;5.186;2023-09-19T07:37:47;7.07;;;2.47;;
18726;SDS011;9492;51.888;5.186;2023-09-19T07:40:16;9.97;;;2.80;;
18726;SDS011;9492;51.888;5.186;2023-09-19T07:42:42;9.80;;;2.67;;
18726;SDS011;9492;51.888;5.186;2023-09-19T07:45:10;6.27;;;2.47;;
18726;SDS011;9492;51.888;5.186;2023-09-19T07:47:48;9.33;;;3.27;;
18726;SDS011;9492;51.888;5.186;2023-09-19T07:50:15;8.33;;;2.93;;
18726;SDS011;9492;51.888;5.186;2023-09-19T07:52:43;8.63;;;3.00;;
18726;SDS011;9492;51.888;5.186;2023-09-19T07:55:09;9.77;;;2.50;;
18726;SDS011;9492;51.888;5.186;2023-09-19T07:57:41;9.63;;;2.70;;
18726;SDS011;9492;51.888;5.186;2023-09-19T08:00:08;13.20;;;3.43;;
18726;SDS011;9492;51.888;5.186;2023-09-19T08:02:38;10.33;;;3.53;;
18726;SDS011;9492;51.888;5.186;2023-09-19T08:05:04;7.60;;;2.60;;
18726;SDS011;9492;51.888;5.186;2023-09-19T08:07:37;11.77;;;3.50;;
18726;SDS011;9492;51.888;5.186;2023-09-19T08:10:03;6.60;;;2.80;;
18726;SDS011;9492;51.888;5.186;2023-09-19T08:12:33;7.80;;;2.80;;
18726;SDS011;9492;51.888;5.186;2023-09-19T08:15:00;12.70;;;3.00;;
18726;SDS011;9492;51.888;5.186;2023-09-19T08:17:26;8.47;;;2.97;;
18726;SDS011;9492;51.888;5.186;2023-09-19T08:19:52;9.43;;;2.90;;
18726;SDS011;9492;51.888;5.186;2023-09-19T08:22:21;11.40;;;3.30;;
18726;SDS011;9492;51.888;5.186;2023-09-19T08:24:48;8.83;;;3.33;;
18726;SDS011;9492;51.888;5.186;2023-09-19T08:27:14;10.80;;;2.73;;
18726;SDS011;9492;51.888;5.186;2023-09-19T08:29:43;9.60;;;3.23;;
18726;SDS011;9492;51.888;5.186;2023-09-19T08:32:09;11.60;;;3.00;;
18726;SDS011;9492;51.888;5.186;2023-09-19T08:34:35;10.07;;;3.40;;
18726;SDS011;9492;51.888;5.186;2023-09-19T08:37:05;7.53;;;2.73;;
18726;SDS011;9492;51.888;5.186;2023-09-19T08:39:31;9.57;;;3.10;;
18726;SDS011;9492;51.888;5.186;2023-09-19T08:42:01;7.53;;;3.17;;
18726;SDS011;9492;51.888;5.186;2023-09-19T08:44:27;7.60;;;2.77;;
18726;SDS011;9492;51.888;5.186;2023-09-19T08:47:01;14.43;;;3.43;;
18726;SDS011;9492;51.888;5.186;2023-09-19T08:52:16;8.53;;;2.77;;
18726;SDS011;9492;51.888;5.186;2023-09-19T08:54:46;7.40;;;2.60;;
18726;SDS011;9492;51.888;5.186;2023-09-19T08:57:14;10.03;;;3.00;;
18726;SDS011;9492;51.888;5.186;2023-09-19T08:59:46;8.57;;;2.77;;
18726;SDS011;9492;51.888;5.186;2023-09-19T09:02:13;10.03;;;3.27;;
18726;SDS011;9492;51.888;5.186;2023-09-19T09:04:40;9.00;;;2.83;;
18726;SDS011;9492;51.888;5.186;2023-09-19T09:07:13;6.83;;;2.90;;
18726;SDS011;9492;51.888;5.186;2023-09-19T09:09:40;8.80;;;3.03;;
18726;SDS011;9492;51.888;5.186;2023-09-19T09:12:11;8.80;;;2.60;;
18726;SDS011;9492;51.888;5.186;2023-09-19T09:14:38;11.77;;;3.20;;
18726;SDS011;9492;51.888;5.186;2023-09-19T09:17:04;9.77;;;2.50;;
18726;SDS011;9492;51.888;5.186;2023-09-19T09:19:32;7.97;;;2.53;;
18726;SDS011;9492;51.888;5.186;2023-09-19T09:22:08;12.90;;;2.83;;
18726;SDS011;9492;51.888;5.186;2023-09-19T09:24:34;10.40;;;2.40;;
18726;SDS011;9492;51.888;5.186;2023-09-19T09:27:03;11.13;;;2.77;;
18726;SDS011;9492;51.888;5.186;2023-09-19T09:29:42;8.63;;;2.90;;
18726;SDS011;9492;51.888;5.186;2023-09-19T09:32:22;14.07;;;3.70;;
18726;SDS011;9492;51.888;5.186;2023-09-19T09:34:49;8.43;;;2.57;;
18726;SDS011;9492;51.888;5.186;2023-09-19T09:37:16;7.10;;;2.80;;
18726;SDS011;9492;51.888;5.186;2023-09-19T09:39:55;9.50;;;2.47;;
18726;SDS011;9492;51.888;5.186;2023-09-19T09:42:33;11.43;;;3.00;;
18726;SDS011;9492;51.888;5.186;2023-09-19T09:47:57;9.93;;;2.67;;
18726;SDS011;9492;51.888;5.186;2023-09-19T09:56:10;9.10;;;2.80;;
18726;SDS011;9492;51.888;5.186;2023-09-19T10:01:13;6.83;;;2.30;;
18726;SDS011;9492;51.888;5.186;2023-09-19T10:03:41;7.00;;;2.23;;
18726;SDS011;9492;51.888;5.186;2023-09-19T10:06:13;8.50;;;2.83;;
18726;SDS011;9492;51.888;5.186;2023-09-19T10:09:07;9.70;;;2.33;;
18726;SDS011;9492;51.888;5.186;2023-09-19T10:11:48;7.90;;;2.23;;
18726;SDS011;9492;51.888;5.186;2023-09-19T10:14:29;8.57;;;3.20;;
18726;SDS011;9492;51.888;5.186;2023-09-19T10:16:59;9.47;;;2.23;;
18726;SDS011;9492;51.888;5.186;2023-09-19T10:19:30;8.20;;;2.60;;
18726;SDS011;9492;51.888;5.186;2023-09-19T10:21:58;7.40;;;2.63;;
18726;SDS011;9492;51.888;5.186;2023-09-19T10:24:25;11.73;;;2.50;;
18726;SDS011;9492;51.888;5.186;2023-09-19T10:26:51;5.80;;;2.43;;
18726;SDS011;9492;51.888;5.186;2023-09-19T10:29:19;9.57;;;2.57;;
18726;SDS011;9492;51.888;5.186;2023-09-19T10:31:48;9.13;;;2.20;;
18726;SDS011;9492;51.888;5.186;2023-09-19T10:34:18;8.10;;;2.60;;
18726;SDS011;9492;51.888;5.186;2023-09-19T10:36:46;7.33;;;2.60;;
18726;SDS011;9492;51.888;5.186;2023-09-19T10:39:13;6.47;;;2.77;;
18726;SDS011;9492;51.888;5.186;2023-09-19T10:41:43;11.80;;;3.00;;
18726;SDS011;9492;51.888;5.186;2023-09-19T10:44:18;7.30;;;2.67;;
18726;SDS011;9492;51.888;5.186;2023-09-19T10:46:46;7.80;;;2.40;;
18726;SDS011;9492;51.888;5.186;2023-09-19T10:49:13;7.77;;;2.43;;
18726;SDS011;9492;51.888;5.186;2023-09-19T10:51:39;8.10;;;2.40;;
18726;SDS011;9492;51.888;5.186;2023-09-19T10:54:08;7.57;;;2.13;;
18726;SDS011;9492;51.888;5.186;2023-09-19T10:56:46;6.13;;;1.97;;
18726;SDS011;9492;51.888;5.186;2023-09-19T10:59:18;7.80;;;2.20;;
18726;SDS011;9492;51.888;5.186;2023-09-19T11:01:51;9.87;;;2.73;;
18726;SDS011;9492;51.888;5.186;2023-09-19T11:04:27;15.13;;;2.53;;
18726;SDS011;9492;51.888;5.186;2023-09-19T11:06:59;6.10;;;2.00;;
18726;SDS011;9492;51.888;5.186;2023-09-19T11:09:42;6.00;;;1.90;;
18726;SDS011;9492;51.888;5.186;2023-09-19T11:12:10;3.80;;;1.90;;
18726;SDS011;9492;51.888;5.186;2023-09-19T11:14:37;4.23;;;2.47;;
18726;SDS011;9492;51.888;5.186;2023-09-19T11:22:19;6.50;;;1.70;;
18726;SDS011;9492;51.888;5.186;2023-09-19T11:24:47;4.53;;;1.67;;
18726;SDS011;9492;51.888;5.186;2023-09-19T11:27:16;3.47;;;1.93;;
18726;SDS011;9492;51.888;5.186;2023-09-19T11:29:43;5.87;;;1.97;;
18726;SDS011;9492;51.888;5.186;2023-09-19T11:33:15;6.00;;;1.80;;
18726;SDS011;9492;51.888;5.186;2023-09-19T11:35:12;4.50;;;1.80;;
18726;SDS011;9492;51.888;5.186;2023-09-19T11:40:08;8.93;;;1.70;;
18726;SDS011;9492;51.888;5.186;2023-09-19T11:42:56;3.63;;;1.80;;
18726;SDS011;9492;51.888;5.186;2023-09-19T11:48:24;3.53;;;1.40;;
18726;SDS011;9492;51.888;5.186;2023-09-19T11:50:50;6.50;;;1.60;;
18726;SDS011;9492;51.888;5.186;2023-09-19T11:53:31;6.03;;;1.63;;
18726;SDS011;9492;51.888;5.186;2023-09-19T11:55:58;7.90;;;2.27;;
18726;SDS011;9492;51.888;5.186;2023-09-19T11:58:25;8.83;;;1.40;;
18726;SDS011;9492;51.888;5.186;2023-09-19T12:00:54;3.60;;;1.33;;
18726;SDS011;9492;51.888;5.186;2023-09-19T12:03:29;5.07;;;1.47;;
18726;SDS011;9492;51.888;5.186;2023-09-19T12:05:55;5.90;;;1.93;;
18726;SDS011;9492;51.888;5.186;2023-09-19T12:08:23;5.90;;;1.43;;
18726;SDS011;9492;51.888;5.186;2023-09-19T12:10:49;3.90;;;1.40;;
18726;SDS011;9492;51.888;5.186;2023-09-19T12:13:20;7.03;;;1.73;;
18726;SDS011;9492;51.888;5.186;2023-09-19T12:15:46;5.53;;;1.63;;
18726;SDS011;9492;51.888;5.186;2023-09-19T12:18:28;7.03;;;1.77;;
18726;SDS011;9492;51.888;5.186;2023-09-19T12:20:54;6.53;;;1.53;;
18726;SDS011;9492;51.888;5.186;2023-09-19T12:23:22;5.17;;;1.83;;
18726;SDS011;9492;51.888;5.186;2023-09-19T12:25:52;4.93;;;1.50;;
18726;SDS011;9492;51.888;5.186;2023-09-19T12:28:22;6.57;;;1.50;;
18726;SDS011;9492;51.888;5.186;2023-09-19T12:30:51;3.13;;;1.00;;
18726;SDS011;9492;51.888;5.186;2023-09-19T12:33:20;6.03;;;1.13;;
18726;SDS011;9492;51.888;5.186;2023-09-19T12:35:52;5.03;;;1.37;;
18726;SDS011;9492;51.888;5.186;2023-09-19T12:38:24;4.07;;;1.43;;
18726;SDS011;9492;51.888;5.186;2023-09-19T12:40:51;5.80;;;1.60;;
18726;SDS011;9492;51.888;5.186;2023-09-19T12:43:18;4.13;;;1.30;;
18726;SDS011;9492;51.888;5.186;2023-09-19T12:45:44;4.27;;;1.50;;
18726;SDS011;9492;51.888;5.186;2023-09-19T12:48:24;3.27;;;1.50;;
18726;SDS011;9492;51.888;5.186;2023-09-19T12:51:06;4.93;;;1.50;;
18726;SDS011;9492;51.888;5.186;2023-09-19T12:53:44;4.13;;;1.30;;
18726;SDS011;9492;51.888;5.186;2023-09-19T12:56:17;3.67;;;1.40;;
18726;SDS011;9492;51.888;5.186;2023-09-19T12:58:54;3.60;;;1.17;;
18726;SDS011;9492;51.888;5.186;2023-09-19T13:01:20;5.63;;;1.50;;
18726;SDS011;9492;51.888;5.186;2023-09-19T13:06:36;3.50;;;1.20;;
18726;SDS011;9492;51.888;5.186;2023-09-19T13:09:12;3.57;;;1.30;;
18726;SDS011;9492;51.888;5.186;2023-09-19T13:11:40;2.87;;;1.50;;
18726;SDS011;9492;51.888;5.186;2023-09-19T13:22:42;5.53;;;1.47;;
18726;SDS011;9492;51.888;5.186;2023-09-19T13:25:13;4.83;;;1.50;;
18726;SDS011;9492;51.888;5.186;2023-09-19T13:27:43;1.37;;;1.00;;
18726;SDS011;9492;51.888;5.186;2023-09-19T13:30:10;3.50;;;1.20;;
18726;SDS011;9492;51.888;5.186;2023-09-19T13:32:39;2.73;;;1.23;;
18726;SDS011;9492;51.888;5.186;2023-09-19T13:35:06;1.77;;;0.90;;
18726;SDS011;9492;51.888;5.186;2023-09-19T13:37:35;3.17;;;1.47;;
18726;SDS011;9492;51.888;5.186;2023-09-19T13:40:06;3.33;;;0.90;;
18726;SDS011;9492;51.888;5.186;2023-09-19T13:42:33;4.03;;;1.10;;
18726;SDS011;9492;51.888;5.186;2023-09-19T13:45:01;5.30;;;1.03;;
18726;SDS011;9492;51.888;5.186;2023-09-19T13:47:29;4.77;;;1.03;;
18726;SDS011;9492;51.888;5.186;2023-09-19T13:49:55;2.50;;;1.10;;
18726;SDS011;9492;51.888;5.186;2023-09-19T13:52:22;5.17;;;1.40;;
18726;SDS011;9492;51.888;5.186;2023-09-19T13:54:51;3.70;;;1.27;;
18726;SDS011;9492;51.888;5.186;2023-09-19T13:57:27;1.40;;;0.93;;
18726;SDS011;9492;51.888;5.186;2023-09-19T13:59:54;4.30;;;1.30;;
18726;SDS011;9492;51.888;5.186;2023-09-19T14:02:23;3.67;;;1.27;;
18726;SDS011;9492;51.888;5.186;2023-09-19T14:04:59;2.80;;;1.20;;
18726;SDS011;9492;51.888;5.186;2023-09-19T14:07:52;4.73;;;1.30;;
18726;SDS011;9492;51.888;5.186;2023-09-19T14:10:19;4.20;;;1.40;;
18726;SDS011;9492;51.888;5.186;2023-09-19T14:12:45;6.03;;;1.60;;
18726;SDS011;9492;51.888;5.186;2023-09-19T14:15:12;3.83;;;1.33;;
18726;SDS011;9492;51.888;5.186;2023-09-19T14:17:39;4.60;;;1.30;;
18726;SDS011;9492;51.888;5.186;2023-09-19T14:20:10;3.13;;;1.80;;
18726;SDS011;9492;51.888;5.186;2023-09-19T14:22:36;5.40;;;1.43;;
18726;SDS011;9492;51.888;5.186;2023-09-19T14:25:03;2.43;;;1.23;;
18726;SDS011;9492;51.888;5.186;2023-09-19T14:27:29;5.07;;;1.80;;
18726;SDS011;9492;51.888;5.186;2023-09-19T14:29:55;5.53;;;1.57;;
18726;SDS011;9492;51.888;5.186;2023-09-19T14:32:29;2.17;;;1.60;;
18726;SDS011;9492;51.888;5.186;2023-09-19T14:35:01;3.83;;;1.50;;
18726;SDS011;9492;51.888;5.186;2023-09-19T14:37:27;4.10;;;1.83;;
18726;SDS011;9492;51.888;5.186;2023-09-19T14:39:54;5.73;;;1.90;;
18726;SDS011;9492;51.888;5.186;2023-09-19T14:42:20;6.47;;;1.40;;
18726;SDS011;9492;51.888;5.186;2023-09-19T14:44:47;6.17;;;2.07;;
18726;SDS011;9492;51.888;5.186;2023-09-19T14:47:13;4.43;;;1.50;;
18726;SDS011;9492;51.888;5.186;2023-09-19T14:49:40;4.80;;;1.87;;
18726;SDS011;9492;51.888;5.186;2023-09-19T14:52:09;4.17;;;1.60;;
18726;SDS011;9492;51.888;5.186;2023-09-19T14:54:40;2.43;;;1.60;;
18726;SDS011;9492;51.888;5.186;2023-09-19T14:57:06;4.07;;;1.83;;
18726;SDS011;9492;51.888;5.186;2023-09-19T14:59:34;5.03;;;1.90;;
18726;SDS011;9492;51.888;5.186;2023-09-19T15:02:06;3.50;;;1.80;;
18726;SDS011;9492;51.888;5.186;2023-09-19T15:04:36;4.93;;;2.03;;
18726;SDS011;9492;51.888;5.186;2023-09-19T15:07:05;6.83;;;2.00;;
18726;SDS011;9492;51.888;5.186;2023-09-19T15:09:31;5.00;;;1.60;;
18726;SDS011;9492;51.888;5.186;2023-09-19T15:11:58;6.80;;;2.30;;
18726;SDS011;9492;51.888;5.186;2023-09-19T15:14:24;4.13;;;1.90;;
18726;SDS011;9492;51.888;5.186;2023-09-19T15:16:50;4.17;;;1.53;;
18726;SDS011;9492;51.888;5.186;2023-09-19T15:19:17;6.07;;;1.80;;
18726;SDS011;9492;51.888;5.186;2023-09-19T15:21:44;5.13;;;2.27;;
18726;SDS011;9492;51.888;5.186;2023-09-19T15:24:10;2.97;;;1.67;;
18726;SDS011;9492;51.888;5.186;2023-09-19T15:26:40;2.63;;;1.80;;
18726;SDS011;9492;51.888;5.186;2023-09-19T15:29:08;3.00;;;1.57;;
18726;SDS011;9492;51.888;5.186;2023-09-19T15:31:35;4.37;;;1.50;;
18726;SDS011;9492;51.888;5.186;2023-09-19T15:34:04;2.80;;;1.40;;
18726;SDS011;9492;51.888;5.186;2023-09-19T15:36:32;3.50;;;1.87;;
18726;SDS011;9492;51.888;5.186;2023-09-19T15:39:05;4.03;;;2.30;;
18726;SDS011;9492;51.888;5.186;2023-09-19T15:41:36;4.70;;;1.60;;
18726;SDS011;9492;51.888;5.186;2023-09-19T15:44:03;2.97;;;1.80;;
18726;SDS011;9492;51.888;5.186;2023-09-19T15:46:32;4.33;;;1.43;;
18726;SDS011;9492;51.888;5.186;2023-09-19T15:49:00;5.43;;;1.77;;
18726;SDS011;9492;51.888;5.186;2023-09-19T15:51:27;3.83;;;2.10;;
18726;SDS011;9492;51.888;5.186;2023-09-19T15:53:53;8.17;;;2.00;;
18726;SDS011;9492;51.888;5.186;2023-09-19T15:56:20;3.80;;;1.70;;
18726;SDS011;9492;51.888;5.186;2023-09-19T15:58:48;7.50;;;2.17;;
18726;SDS011;9492;51.888;5.186;2023-09-19T16:01:14;6.00;;;1.80;;
18726;SDS011;9492;51.888;5.186;2023-09-19T16:03:48;5.50;;;2.13;;